Time;durP1;ratioP1;P1;durP2;ratioP2;P2;SDS_P1;SDS_P2;PMS_P1;PMS_P2;Temp;Humidity;BMP_temperature;BMP_pressure;BME280_temperature;BME280_humidity;BME280_pressure;Samples;Min_cycle;Max_cycle;Signal;HPM_P1;HPM_P2
2022/08/19 00:00:14;;;;;;;5.38;3.67;;;15.30;99.90;;;;;;5076660;28;20400;-78
2022/08/19 00:02:41;;;;;;;7.68;3.15;;;15.20;99.90;;;;;;5076339;28;20064;-78
2022/08/19 00:05:08;;;;;;;6.70;3.60;;;15.30;99.90;;;;;;5076718;28;20115;-78
2022/08/19 00:07:34;;;;;;;5.82;3.55;;;15.20;99.90;;;;;;5076635;28;20056;-78
2022/08/19 00:09:59;;;;;;;6.30;4.50;;;15.20;99.90;;;;;;5076650;28;20040;-78
2022/08/19 00:12:25;;;;;;;7.30;4.10;;;15.20;99.90;;;;;;5076509;28;20480;-79
2022/08/19 00:14:53;;;;;;;9.32;3.58;;;15.20;99.90;;;;;;5075041;28;20045;-78
2022/08/19 00:17:19;;;;;;;9.10;4.50;;;15.20;99.90;;;;;;5076033;28;20048;-78
2022/08/19 00:19:45;;;;;;;7.57;4.75;;;15.10;99.90;;;;;;5076402;28;20401;-78
2022/08/19 00:22:11;;;;;;;6.70;3.95;;;15.10;99.90;;;;;;5076280;28;20049;-78
2022/08/19 00:24:38;;;;;;;7.40;4.18;;;15.10;99.90;;;;;;5075294;28;20044;-78
2022/08/19 00:27:05;;;;;;;7.38;4.85;;;15.10;99.90;;;;;;5076150;28;20135;-78
2022/08/19 00:29:30;;;;;;;8.88;4.97;;;15.10;99.90;;;;;;5074775;28;20072;-78
2022/08/19 00:31:58;;;;;;;8.93;4.93;;;15.10;99.90;;;;;;5076056;28;20121;-78
2022/08/19 00:34:26;;;;;;;8.52;4.60;;;15.10;99.90;;;;;;5076166;28;20067;-78
2022/08/19 00:36:51;;;;;;;9.05;5.45;;;15.10;99.90;;;;;;5076070;28;20048;-78
2022/08/19 00:39:17;;;;;;;9.55;5.57;;;15.10;99.90;;;;;;5075983;28;20044;-78
2022/08/19 00:41:45;;;;;;;8.75;5.97;;;15.10;99.90;;;;;;5075901;28;20037;-78
2022/08/19 00:44:22;;;;;;;7.78;5.93;;;15.10;99.90;;;;;;5075805;28;20048;-78
2022/08/19 00:46:49;;;;;;;11.63;6.40;;;15.10;99.90;;;;;;5074879;28;20087;-78
2022/08/19 00:49:24;;;;;;;12.13;6.47;;;15.10;99.90;;;;;;5075719;28;20460;-79
2022/08/19 00:51:57;;;;;;;8.80;6.57;;;15.00;99.90;;;;;;5075836;28;20059;-79
2022/08/19 00:54:23;;;;;;;10.40;6.47;;;15.00;99.90;;;;;;5075860;28;20094;-78
2022/08/19 00:56:50;;;;;;;11.10;5.95;;;15.00;99.90;;;;;;5074321;28;20048;-79
2022/08/19 00:59:17;;;;;;;10.23;6.30;;;15.00;99.90;;;;;;5074259;28;20052;-79
2022/08/19 01:01:45;;;;;;;9.90;6.00;;;15.00;99.90;;;;;;5074001;28;20056;-79
2022/08/19 01:04:11;;;;;;;11.98;6.43;;;15.00;99.90;;;;;;5074366;28;20449;-79
2022/08/19 01:06:40;;;;;;;13.73;6.43;;;14.90;99.90;;;;;;5075540;28;20502;-78
2022/08/19 01:09:06;;;;;;;7.85;5.45;;;15.00;99.90;;;;;;5074102;28;20557;-78
2022/08/19 01:11:36;;;;;;;12.40;5.93;;;14.90;99.90;;;;;;5075500;28;20036;-78
2022/08/19 01:14:02;;;;;;;10.15;5.97;;;14.90;99.90;;;;;;5075402;28;20499;-78
2022/08/19 01:16:29;;;;;;;10.82;6.88;;;14.80;99.90;;;;;;5075336;28;20090;-78
2022/08/19 01:18:56;;;;;;;12.30;6.93;;;14.80;99.90;;;;;;5074269;28;20112;-78
2022/08/19 01:21:42;;;;;;;10.05;6.97;;;14.80;99.90;;;;;;5074206;28;20048;-78
2022/08/19 01:24:07;;;;;;;12.68;7.55;;;14.80;99.90;;;;;;5074036;28;20054;-78
2022/08/19 01:26:40;;;;;;;9.95;6.70;;;14.80;99.90;;;;;;5073954;28;20074;-78
2022/08/19 01:29:07;;;;;;;12.95;6.85;;;14.80;99.90;;;;;;5073804;28;20503;-78
2022/08/19 01:31:33;;;;;;;11.77;6.70;;;14.90;99.90;;;;;;5074937;28;20498;-78
2022/08/19 01:34:01;;;;;;;11.15;6.82;;;14.80;99.90;;;;;;5074929;28;20045;-78
2022/08/19 01:36:36;;;;;;;12.77;6.80;;;14.80;99.90;;;;;;5075443;28;20076;-78
2022/08/19 01:39:05;;;;;;;9.60;6.70;;;14.70;99.90;;;;;;5074888;28;20032;-78
2022/08/19 01:41:31;;;;;;;10.63;6.28;;;14.70;99.90;;;;;;5074769;28;20050;-78
2022/08/19 01:43:57;;;;;;;9.57;7.05;;;14.70;99.90;;;;;;5073740;28;20127;-79
2022/08/19 01:46:23;;;;;;;12.32;7.53;;;14.70;99.90;;;;;;5074463;28;20044;-78
2022/08/19 01:48:48;;;;;;;11.85;7.22;;;14.70;99.90;;;;;;5074701;28;20403;-78
2022/08/19 01:51:14;;;;;;;10.55;6.38;;;14.70;99.90;;;;;;5073325;28;20044;-78
2022/08/19 01:53:40;;;;;;;10.77;6.57;;;14.60;99.90;;;;;;5073450;28;20052;-78
2022/08/19 01:56:07;;;;;;;10.07;6.35;;;14.50;99.90;;;;;;5074273;28;20072;-78
2022/08/19 01:58:40;;;;;;;14.82;7.45;;;14.50;99.90;;;;;;5073536;28;20045;-78
2022/08/19 02:01:07;;;;;;;13.75;7.80;;;14.50;99.90;;;;;;5074538;28;20045;-78
2022/08/19 02:03:34;;;;;;;10.25;7.07;;;14.50;99.90;;;;;;5074019;28;20052;-78
2022/08/19 02:06:02;;;;;;;10.55;7.25;;;14.50;99.90;;;;;;5074212;28;20040;-78
2022/08/19 02:08:29;;;;;;;11.95;7.30;;;14.50;99.90;;;;;;5074230;28;20516;-78
2022/08/19 02:10:55;;;;;;;10.00;7.60;;;14.50;99.90;;;;;;5072683;28;20048;-78
2022/08/19 02:13:26;;;;;;;12.30;7.40;;;14.50;99.90;;;;;;5073766;28;20128;-78
2022/08/19 02:15:52;;;;;;;12.10;7.28;;;14.50;99.90;;;;;;5074257;28;20040;-78
2022/08/19 02:18:18;;;;;;;9.90;7.30;;;14.50;99.90;;;;;;5073975;28;20052;-78
2022/08/19 02:20:44;;;;;;;11.93;7.65;;;14.50;99.90;;;;;;5073999;28;20127;-78
2022/08/19 02:23:11;;;;;;;10.38;6.95;;;14.50;99.90;;;;;;5073905;28;20487;-78
2022/08/19 02:25:38;;;;;;;11.48;7.00;;;14.50;99.90;;;;;;5074089;28;20056;-78
2022/08/19 02:28:03;;;;;;;11.60;6.72;;;14.50;99.90;;;;;;5072758;28;20101;-78
2022/08/19 02:30:29;;;;;;;11.68;7.32;;;14.50;99.90;;;;;;5072807;28;20123;-78
2022/08/19 02:32:55;;;;;;;13.23;7.20;;;14.60;99.90;;;;;;5073983;28;20041;-78
2022/08/19 02:35:21;;;;;;;11.60;6.85;;;14.50;99.90;;;;;;5074245;28;20043;-78
2022/08/19 02:40:35;;;;;;;12.23;7.22;;;14.50;99.90;;;;;;5073802;28;20044;-77
2022/08/19 02:43:02;;;;;;;11.57;7.53;;;14.50;99.90;;;;;;5073771;28;20040;-77
2022/08/19 02:45:32;;;;;;;12.13;7.82;;;14.50;99.90;;;;;;5072589;28;20105;-77
2022/08/19 02:47:58;;;;;;;13.90;7.70;;;14.50;99.90;;;;;;5072710;28;20074;-77
2022/08/19 02:50:24;;;;;;;15.00;8.93;;;14.50;99.90;;;;;;5073776;28;20064;-77
2022/08/19 02:52:49;;;;;;;12.43;8.27;;;14.50;99.90;;;;;;5072647;28;20559;-77
2022/08/19 02:55:15;;;;;;;13.85;9.65;;;14.50;99.90;;;;;;5072245;28;20052;-78
2022/08/19 02:57:41;;;;;;;16.80;9.75;;;14.60;99.90;;;;;;5073449;28;20127;-78
2022/08/19 03:00:09;;;;;;;14.50;9.30;;;14.60;99.90;;;;;;5072306;28;20067;-77
2022/08/19 03:02:34;;;;;;;16.30;9.73;;;14.70;99.90;;;;;;5073320;28;20067;-77
2022/08/19 03:05:02;;;;;;;16.30;9.70;;;14.70;99.90;;;;;;5073560;28;20056;-77
2022/08/19 03:07:27;;;;;;;14.80;10.18;;;14.70;99.90;;;;;;5072535;28;20060;-78
2022/08/19 03:09:53;;;;;;;18.73;10.40;;;14.70;99.90;;;;;;5073644;28;20068;-77
2022/08/19 03:12:18;;;;;;;15.70;10.45;;;14.70;99.90;;;;;;5072406;28;20463;-77
2022/08/19 03:14:46;;;;;;;18.50;11.85;;;14.80;99.90;;;;;;5105907;28;20036;-77
2022/08/19 03:17:12;;;;;;;19.35;11.43;;;14.90;99.90;;;;;;5073451;28;20116;-77
2022/08/19 03:19:38;;;;;;;15.18;10.50;;;14.90;99.90;;;;;;5072182;28;20067;-78
2022/08/19 03:22:04;;;;;;;16.33;11.30;;;14.90;99.90;;;;;;5072062;28;20037;-78
2022/08/19 03:24:31;;;;;;;15.30;10.77;;;14.90;99.90;;;;;;5075738;28;20050;-78
2022/08/19 03:26:58;;;;;;;20.08;11.30;;;14.90;99.90;;;;;;5077449;28;20044;-78
2022/08/19 03:29:26;;;;;;;18.10;10.05;;;14.90;99.90;;;;;;5077232;28;20117;-78
2022/08/19 03:31:51;;;;;;;18.00;10.73;;;14.90;99.90;;;;;;5077255;28;20056;-78
2022/08/19 03:34:22;;;;;;;17.90;10.02;;;14.90;99.90;;;;;;5077264;28;20043;-78
2022/08/19 03:36:48;;;;;;;15.10;10.18;;;14.90;99.90;;;;;;5077166;28;20160;-77
2022/08/19 03:39:15;;;;;;;15.00;10.02;;;14.90;99.90;;;;;;5077044;28;20131;-77
2022/08/19 03:41:43;;;;;;;18.83;10.43;;;14.90;99.90;;;;;;5075815;28;20209;-77
2022/08/19 03:44:09;;;;;;;16.25;10.52;;;14.90;99.90;;;;;;5077086;28;20056;-77
2022/08/19 03:46:36;;;;;;;15.75;10.45;;;14.90;99.90;;;;;;5077103;28;20166;-78
2022/08/19 03:49:06;;;;;;;17.38;10.43;;;14.90;99.90;;;;;;5076952;28;20048;-77
2022/08/19 03:51:35;;;;;;;16.80;10.20;;;14.90;99.90;;;;;;5077041;28;20040;-77
2022/08/19 03:54:03;;;;;;;16.92;9.60;;;14.90;99.90;;;;;;5075718;28;20499;-78
2022/08/19 03:56:29;;;;;;;14.23;9.40;;;14.90;99.90;;;;;;5076905;28;20036;-78
2022/08/19 03:58:56;;;;;;;17.80;10.07;;;14.90;99.90;;;;;;5076692;28;20105;-78
2022/08/19 04:01:26;;;;;;;14.40;8.93;;;14.90;99.90;;;;;;5075217;28;20424;-78
2022/08/19 04:03:52;;;;;;;16.90;9.25;;;14.90;99.90;;;;;;5075364;28;20102;-77
2022/08/19 04:06:21;;;;;;;14.10;9.50;;;14.80;99.90;;;;;;5076412;28;20472;-78
2022/08/19 04:08:50;;;;;;;12.52;9.23;;;14.80;99.90;;;;;;5075476;28;20157;-78
2022/08/19 04:11:21;;;;;;;14.57;9.38;;;14.80;99.90;;;;;;5075200;28;20132;-77
2022/08/19 04:13:47;;;;;;;13.55;9.10;;;14.80;99.90;;;;;;5076147;28;20395;-77
2022/08/19 04:16:13;;;;;;;13.82;8.82;;;14.80;99.90;;;;;;5076128;28;20044;-77
2022/08/19 04:18:40;;;;;;;14.75;9.35;;;14.80;99.90;;;;;;5076155;28;20040;-77
2022/08/19 04:21:07;;;;;;;14.93;9.77;;;14.80;99.90;;;;;;5075423;28;20172;-77
2022/08/19 04:23:35;;;;;;;13.95;8.93;;;14.80;99.90;;;;;;5073439;28;20112;-77
2022/08/19 04:26:02;;;;;;;14.80;9.20;;;14.80;99.90;;;;;;5075482;28;20124;-77
2022/08/19 04:28:28;;;;;;;14.13;9.63;;;14.80;99.90;;;;;;5076230;28;20055;-77
2022/08/19 04:30:55;;;;;;;16.27;9.88;;;14.80;99.90;;;;;;5074916;28;20048;-77
2022/08/19 04:33:23;;;;;;;17.05;9.90;;;14.70;99.90;;;;;;5075880;28;20514;-77
2022/08/19 04:35:52;;;;;;;17.73;9.38;;;14.70;99.90;;;;;;5074141;28;20097;-77
2022/08/19 04:38:22;;;;;;;16.05;9.00;;;14.70;99.90;;;;;;5075791;28;20431;-77
2022/08/19 04:43:35;;;;;;;15.00;8.73;;;14.90;99.90;;;;;;5075648;28;20550;-77
2022/08/19 04:46:10;;;;;;;13.45;8.48;;;14.90;99.90;;;;;;5075929;28;20106;-77
2022/08/19 04:48:36;;;;;;;14.35;8.25;;;14.90;99.90;;;;;;5075548;28;20399;-77
2022/08/19 04:51:07;;;;;;;14.98;9.15;;;15.00;99.90;;;;;;5075663;28;20052;-77
2022/08/19 04:53:35;;;;;;;16.92;9.63;;;15.00;99.90;;;;;;5075544;28;20499;-77
2022/08/19 04:56:11;;;;;;;16.17;9.20;;;15.10;99.90;;;;;;5075441;28;20445;-77
2022/08/19 04:58:41;;;;;;;16.10;9.40;;;15.20;99.90;;;;;;5075386;28;20380;-76
2022/08/19 05:01:08;;;;;;;14.35;9.57;;;15.20;99.90;;;;;;5074410;28;20400;-76
2022/08/19 05:03:34;;;;;;;15.00;8.52;;;15.20;99.90;;;;;;5073893;28;20504;-77
2022/08/19 05:06:10;;;;;;;17.27;9.45;;;15.20;99.90;;;;;;5074022;28;20582;-77
2022/08/19 05:08:37;;;;;;;19.45;9.45;;;15.30;99.90;;;;;;5074019;28;20075;-76
2022/08/19 05:11:12;;;;;;;14.70;9.38;;;15.30;99.90;;;;;;5073948;28;20502;-77
2022/08/19 05:13:38;;;;;;;15.63;9.35;;;15.30;99.90;;;;;;5074189;28;20400;-77
2022/08/19 05:16:04;;;;;;;14.95;9.55;;;15.40;99.90;;;;;;5075379;28;20044;-77
2022/08/19 05:24:02;;;;;;;15.20;9.73;;;15.40;99.90;;;;;;5075027;28;20556;-77
2022/08/19 05:26:28;;;;;;;16.00;10.20;;;15.50;99.90;;;;;;5073629;28;20086;-76
2022/08/19 05:28:55;;;;;;;14.73;9.73;;;15.50;99.90;;;;;;5075065;28;20397;-77
2022/08/19 05:31:21;;;;;;;13.52;9.63;;;15.60;99.90;;;;;;5075011;28;20045;-77
2022/08/19 05:33:47;;;;;;;17.85;9.88;;;15.60;99.90;;;;;;5073868;28;20044;-77
2022/08/19 05:36:13;;;;;;;15.23;9.77;;;15.60;99.90;;;;;;5074629;28;20474;-77
2022/08/19 05:38:39;;;;;;;13.63;9.23;;;15.70;99.90;;;;;;5074908;28;20036;-77
2022/08/19 05:41:13;;;;;;;15.25;9.52;;;15.70;99.90;;;;;;5074647;28;20052;-77
2022/08/19 05:43:39;;;;;;;15.88;10.25;;;15.80;99.90;;;;;;5073152;28;20173;-77
2022/08/19 05:46:05;;;;;;;15.52;10.20;;;15.80;99.90;;;;;;5073977;28;20123;-77
2022/08/19 05:48:33;;;;;;;17.92;10.15;;;16.00;99.90;;;;;;5074685;28;20040;-77
2022/08/19 05:51:03;;;;;;;15.73;9.32;;;16.00;99.90;;;;;;5074688;28;20044;-77
2022/08/19 05:53:28;;;;;;;19.15;9.45;;;16.10;99.90;;;;;;5074390;28;20516;-77
2022/08/19 05:55:54;;;;;;;15.45;9.48;;;16.20;99.90;;;;;;5074569;28;20111;-77
2022/08/19 05:58:19;;;;;;;14.15;9.98;;;16.30;99.90;;;;;;5073023;28;20048;-77
2022/08/19 06:00:45;;;;;;;16.23;10.20;;;16.50;99.90;;;;;;5074165;28;20080;-77
2022/08/19 06:03:11;;;;;;;15.88;10.60;;;16.50;99.90;;;;;;5073982;28;20057;-77
2022/08/19 06:05:36;;;;;;;16.42;11.15;;;16.70;99.90;;;;;;5074333;28;20052;-77
2022/08/19 06:08:02;;;;;;;15.68;10.15;;;16.70;99.90;;;;;;5072832;28;20040;-77
2022/08/19 06:10:29;;;;;;;17.77;10.43;;;16.90;99.90;;;;;;5072783;28;20052;-77
2022/08/19 06:12:55;;;;;;;16.92;10.27;;;17.00;99.90;;;;;;5072807;28;20052;-77
2022/08/19 06:15:26;;;;;;;14.57;10.05;;;17.00;99.90;;;;;;5071495;28;20053;-78
2022/08/19 06:17:51;;;;;;;18.77;10.07;;;17.20;99.90;;;;;;5061497;28;20472;-77
2022/08/19 06:20:20;;;;;;;14.40;9.45;;;17.20;99.90;;;;;;5054330;28;20087;-77
2022/08/19 06:22:51;;;;;;;14.35;10.40;;;17.40;99.90;;;;;;5052282;28;20053;-77
2022/08/19 06:25:17;;;;;;;14.25;9.90;;;17.50;99.90;;;;;;5052454;28;20049;-76
2022/08/19 06:27:43;;;;;;;13.57;10.38;;;17.70;99.90;;;;;;5052506;28;20063;-77
2022/08/19 06:30:12;;;;;;;13.30;9.80;;;17.80;99.90;;;;;;5055425;28;20369;-76
2022/08/19 06:32:38;;;;;;;12.40;9.88;;;17.90;99.90;;;;;;5097996;28;20048;-76
2022/08/19 06:35:04;;;;;;;13.32;9.13;;;18.00;99.90;;;;;;5073480;28;20403;-77
2022/08/19 06:37:30;;;;;;;13.88;10.23;;;18.10;99.90;;;;;;5073398;28;20083;-77
2022/08/19 06:39:56;;;;;;;15.07;9.85;;;18.20;99.90;;;;;;5073411;28;20052;-77
2022/08/19 06:42:22;;;;;;;13.77;9.20;;;18.30;99.90;;;;;;5073244;28;20124;-77
2022/08/19 06:44:48;;;;;;;12.90;9.95;;;18.40;99.90;;;;;;5073337;28;20040;-78
2022/08/19 06:47:17;;;;;;;16.13;10.85;;;18.60;99.90;;;;;;5073602;28;20032;-78
2022/08/19 06:49:43;;;;;;;14.25;9.52;;;18.60;99.90;;;;;;5073281;28;20492;-78
2022/08/19 06:52:12;;;;;;;13.75;9.85;;;18.80;99.90;;;;;;5073045;28;20048;-79
2022/08/19 06:54:41;;;;;;;14.60;9.68;;;18.90;99.90;;;;;;5073237;28;20040;-80
2022/08/19 06:57:08;;;;;;;11.02;8.60;;;19.00;99.90;;;;;;5073131;28;20067;-80
2022/08/19 06:59:34;;;;;;;13.57;9.52;;;19.10;99.90;;;;;;5071980;28;20048;-78
2022/08/19 07:02:05;;;;;;;12.55;9.57;;;19.20;99.90;;;;;;5072788;28;20052;-78
2022/08/19 07:04:32;;;;;;;12.48;9.35;;;19.30;99.90;;;;;;5073314;28;20044;-79
2022/08/19 07:07:14;;;;;;;11.85;9.85;;;19.40;99.90;;;;;;5072798;28;20040;-78
2022/08/19 07:09:44;;;;;;;13.57;9.80;;;19.50;99.90;;;;;;5073569;28;20049;-78
2022/08/19 07:12:14;;;;;;;12.82;9.73;;;19.50;99.90;;;;;;5073511;28;20044;-78
2022/08/19 07:14:40;;;;;;;15.32;10.23;;;19.70;99.90;;;;;;5073382;28;20130;-77
2022/08/19 07:17:08;;;;;;;16.02;10.20;;;19.70;99.90;;;;;;5071654;28;20083;-78
2022/08/19 07:19:34;;;;;;;12.43;9.23;;;19.80;99.90;;;;;;5073022;28;20480;-78
2022/08/19 07:22:02;;;;;;;15.30;9.77;;;19.90;99.90;;;;;;5071498;28;20479;-79
2022/08/19 07:24:30;;;;;;;16.55;10.23;;;20.00;99.90;;;;;;5066017;28;20049;-78
2022/08/19 07:27:00;;;;;;;13.63;10.00;;;20.20;99.90;;;;;;5059369;28;20049;-79
2022/08/19 07:29:36;;;;;;;14.88;9.70;;;20.20;99.90;;;;;;5052181;28;20167;-79
2022/08/19 07:32:03;;;;;;;13.77;9.93;;;20.30;99.90;;;;;;5053169;28;20128;-79
2022/08/19 07:34:30;;;;;;;12.70;10.40;;;20.40;99.90;;;;;;5053206;28;20045;-79
2022/08/19 07:36:57;;;;;;;14.38;10.13;;;20.60;99.90;;;;;;5053092;28;20041;-78
2022/08/19 07:39:29;;;;;;;12.45;10.73;;;20.70;99.90;;;;;;5052879;28;20122;-79
2022/08/19 07:41:56;;;;;;;15.80;10.27;;;20.70;99.90;;;;;;5053978;28;20037;-77
2022/08/19 07:44:24;;;;;;;12.65;9.52;;;20.90;99.90;;;;;;5053438;28;20052;-78
2022/08/19 07:46:53;;;;;;;12.52;9.93;;;21.00;99.90;;;;;;5051690;28;20115;-78
2022/08/19 07:49:20;;;;;;;12.20;10.32;;;21.10;99.90;;;;;;5053165;28;20182;-78
2022/08/19 07:51:51;;;;;;;13.60;10.32;;;21.30;99.90;;;;;;5085095;28;20041;-78
2022/08/19 07:54:19;;;;;;;14.63;10.85;;;21.40;99.90;;;;;;5087230;28;20045;-77
2022/08/19 07:56:45;;;;;;;13.57;10.70;;;21.50;99.90;;;;;;5093918;28;20045;-79
2022/08/19 07:59:11;;;;;;;13.65;10.75;;;21.50;99.90;;;;;;5052381;28;20408;-78
2022/08/19 08:01:40;;;;;;;12.95;10.02;;;21.60;99.90;;;;;;5052321;28;20057;-79
2022/08/19 08:09:40;;;;;;;13.32;10.43;;;22.00;99.90;;;;;;5052958;28;20092;-78
2022/08/19 08:12:10;;;;;;;11.80;10.02;;;22.10;99.90;;;;;;5054976;28;20094;-78
2022/08/19 08:14:41;;;;;;;11.50;9.68;;;22.20;99.90;;;;;;5057131;28;20047;-79
2022/08/19 08:17:08;;;;;;;12.73;9.82;;;22.20;99.90;;;;;;5074879;28;20123;-78
2022/08/19 08:19:34;;;;;;;16.30;10.50;;;22.40;99.90;;;;;;5074787;28;20044;-78
2022/08/19 08:22:00;;;;;;;13.80;10.77;;;22.40;99.90;;;;;;5075866;28;20055;-78
2022/08/19 08:24:30;;;;;;;13.93;10.48;;;22.50;99.90;;;;;;5097470;28;20458;-78
2022/08/19 08:26:58;;;;;;;12.48;9.90;;;22.60;99.90;;;;;;5065049;28;20039;-78
2022/08/19 08:29:34;;;;;;;12.02;10.73;;;22.70;99.90;;;;;;5065552;28;20036;-78
2022/08/19 08:31:59;;;;;;;13.20;11.02;;;22.80;99.90;;;;;;5072479;28;20037;-78
2022/08/19 08:34:28;;;;;;;14.55;10.77;;;22.80;99.90;;;;;;5069790;28;20103;-79
2022/08/19 08:36:54;;;;;;;12.70;10.85;;;22.90;99.90;;;;;;5064489;28;20480;-79
2022/08/19 08:39:21;;;;;;;13.88;10.68;;;23.10;99.90;;;;;;5054247;28;20075;-79
2022/08/19 08:42:18;;;;;;;12.32;10.88;;;23.20;99.90;;;;;;5065393;28;20567;-78
2022/08/19 08:44:50;;;;;;;15.88;12.27;;;23.40;99.90;;;;;;5074339;28;20399;-78
2022/08/19 08:47:20;;;;;;;17.50;12.50;;;23.40;99.90;;;;;;5074462;28;20048;-78
2022/08/19 08:50:01;;;;;;;14.43;12.00;;;23.40;99.90;;;;;;5059955;28;20130;-78
2022/08/19 08:52:35;;;;;;;13.75;11.05;;;23.50;99.90;;;;;;5055669;28;20037;-78
2022/08/19 08:55:28;;;;;;;14.20;11.00;;;23.70;99.90;;;;;;5093124;28;20503;-79
2022/08/19 08:58:41;;;;;;;13.60;11.32;;;23.80;99.90;;;;;;5074581;28;20110;-78
2022/08/19 09:01:09;;;;;;;;;;;23.90;99.90;;;;;;5057134;28;20052;-78
2022/08/19 09:03:39;;;;;;;13.30;11.25;;;23.90;99.90;;;;;;5075070;28;19979;-78
2022/08/19 09:06:28;;;;;;;14.52;11.18;;;24.10;99.90;;;;;;5070188;28;20136;-77
2022/08/19 09:09:18;;;;;;;16.70;11.88;;;24.00;99.90;;;;;;5074090;28;20403;-78
2022/08/19 09:11:55;;;;;;;14.18;12.65;;;24.20;99.90;;;;;;5074815;28;20036;-77
2022/08/19 09:14:30;;;;;;;14.18;12.65;;;24.20;99.90;;;;;;5074237;28;20048;-77
2022/08/19 09:16:58;;;;;;;14.55;12.90;;;24.20;99.90;;;;;;5075050;28;20036;-76
2022/08/19 09:19:23;;;;;;;13.73;12.25;;;24.30;99.90;;;;;;5074137;28;20051;-77
2022/08/19 09:21:50;;;;;;;16.17;13.05;;;24.40;99.90;;;;;;5074833;28;20044;-76
2022/08/19 09:24:16;;;;;;;13.23;11.82;;;24.40;99.90;;;;;;5074090;28;20066;-76
2022/08/19 09:26:43;;;;;;;12.45;10.68;;;24.50;99.90;;;;;;5074686;28;20446;-76
2022/08/19 09:29:09;;;;;;;15.63;12.70;;;24.60;99.90;;;;;;5075155;28;20040;-79
2022/08/19 09:31:35;;;;;;;13.80;12.32;;;24.70;99.90;;;;;;5074899;28;20499;-76
2022/08/19 09:34:04;;;;;;;16.63;13.93;;;24.70;99.90;;;;;;5074738;28;20040;-78
2022/08/19 09:36:35;;;;;;;14.27;12.88;;;24.80;99.90;;;;;;5073598;28;20056;-77
2022/08/19 09:39:05;;;;;;;16.40;13.23;;;24.80;99.90;;;;;;5073547;28;20415;-77
2022/08/19 09:41:31;;;;;;;15.05;13.45;;;24.80;99.90;;;;;;5074619;28;20068;-77
2022/08/19 09:43:58;;;;;;;17.63;14.35;;;24.90;99.90;;;;;;5074495;28;20040;-76
2022/08/19 09:46:30;;;;;;;16.35;13.95;;;25.00;99.90;;;;;;5074083;28;20488;-76
2022/08/19 09:48:59;;;;;;;14.98;13.38;;;25.00;99.90;;;;;;5072997;28;20044;-76
2022/08/19 09:51:28;;;;;;;13.95;12.23;;;25.10;99.90;;;;;;5073135;28;20575;-78
2022/08/19 09:53:58;;;;;;;14.70;13.20;;;25.30;99.90;;;;;;5073948;28;20070;-77
2022/08/19 09:56:24;;;;;;;16.05;13.95;;;25.50;99.90;;;;;;5073525;28;20040;-76
2022/08/19 09:58:53;;;;;;;15.63;14.00;;;25.50;99.90;;;;;;5052536;28;20115;-76
2022/08/19 10:01:22;;;;;;;15.70;13.95;;;25.50;99.90;;;;;;5054127;28;20128;-76
2022/08/19 10:03:52;;;;;;;17.23;15.40;;;25.60;99.90;;;;;;5054345;28;20052;-77
2022/08/19 10:06:18;;;;;;;14.32;12.85;;;25.50;99.90;;;;;;5086404;28;20095;-76
2022/08/19 10:08:45;;;;;;;16.25;14.55;;;25.70;99.90;;;;;;5053886;28;20467;-76
2022/08/19 10:11:15;;;;;;;16.13;14.45;;;25.80;99.90;;;;;;5053009;28;20087;-84
2022/08/19 10:13:43;;;;;;;16.77;15.10;;;25.80;99.90;;;;;;5086319;28;20045;-83
2022/08/19 10:16:12;;;;;;;18.92;16.92;;;25.80;99.90;;;;;;5052702;28;20438;-83
2022/08/19 10:18:37;;;;;;;20.38;18.25;;;25.80;99.90;;;;;;5086233;28;20044;-85
2022/08/19 10:21:16;;;;;;;20.35;17.30;;;25.80;99.90;;;;;;5052552;28;20048;-84
2022/08/19 10:23:44;;;;;;;19.52;15.75;;;25.90;99.90;;;;;;5086048;28;20053;-84
2022/08/19 10:26:20;;;;;;;19.25;17.30;;;26.00;99.90;;;;;;5086287;28;20059;-84
2022/08/19 10:28:46;;;;;;;19.80;17.42;;;26.10;99.90;;;;;;5086122;28;20094;-83
2022/08/19 10:31:19;;;;;;;19.35;17.35;;;26.20;99.90;;;;;;5085880;28;20484;-83
2022/08/19 10:33:47;;;;;;;20.08;18.08;;;26.30;99.90;;;;;;5085674;28;20056;-83
2022/08/19 10:36:19;;;;;;;19.98;18.00;;;26.30;99.90;;;;;;5086009;28;20045;-83
2022/08/19 10:38:47;;;;;;;21.50;19.23;;;26.40;99.90;;;;;;5085846;28;20476;-76
2022/08/19 10:41:33;;;;;;;19.50;17.60;;;26.50;99.90;;;;;;5053562;28;20041;-76
2022/08/19 10:44:05;;;;;;;22.40;18.35;;;26.60;99.90;;;;;;5053417;28;20075;-76
2022/08/19 10:46:32;;;;;;;20.95;17.48;;;26.70;99.90;;;;;;5052482;28;20045;-77
2022/08/19 10:49:03;;;;;;;17.95;16.05;;;26.70;99.90;;;;;;5053548;28;20044;-77
2022/08/19 10:54:17;;;;;;;18.20;16.42;;;26.60;99.90;;;;;;5053231;28;20059;-76
2022/08/19 10:56:52;;;;;;;18.02;16.13;;;26.60;99.90;;;;;;5053538;28;20087;-76
2022/08/19 10:59:29;;;;;;;20.02;18.02;;;26.50;99.90;;;;;;5053502;28;20072;-77
2022/08/19 11:01:59;;;;;;;18.67;16.42;;;26.50;99.90;;;;;;5052840;28;20049;-85
2022/08/19 11:04:28;;;;;;;17.92;16.02;;;26.40;99.90;;;;;;5085590;28;20077;-84
2022/08/19 11:06:55;;;;;;;17.83;15.65;;;26.20;99.90;;;;;;5085537;28;20047;-81
2022/08/19 11:09:28;;;;;;;21.52;16.10;;;26.10;99.90;;;;;;5051846;28;20052;-80
2022/08/19 11:11:56;;;;;;;18.52;16.38;;;26.00;99.90;;;;;;5051631;28;20416;-83
2022/08/19 11:14:25;;;;;;;17.25;15.48;;;25.90;99.90;;;;;;5051892;28;20558;-75
2022/08/19 11:16:55;;;;;;;17.98;15.68;;;26.00;99.90;;;;;;5085168;28;20056;-76
2022/08/19 11:19:23;;;;;;;19.55;13.95;;;26.00;99.90;;;;;;5053071;28;20052;-77
2022/08/19 11:21:49;;;;;;;17.58;14.25;;;26.00;99.90;;;;;;5053056;28;20074;-76
2022/08/19 11:24:21;;;;;;;16.45;14.18;;;26.40;99.90;;;;;;5085324;28;20063;-76
2022/08/19 11:26:56;;;;;;;18.58;14.88;;;26.60;99.90;;;;;;5053235;28;20037;-77
2022/08/19 11:29:25;;;;;;;15.27;13.68;;;26.80;99.90;;;;;;5053020;28;20504;-77
2022/08/19 11:31:52;;;;;;;18.30;15.23;;;26.70;99.90;;;;;;5085018;28;20045;-76
2022/08/19 11:34:29;;;;;;;16.98;14.25;;;26.40;99.90;;;;;;5053296;28;20044;-77
2022/08/19 11:36:59;;;;;;;18.13;15.30;;;26.30;99.90;;;;;;5050601;28;20091;-78
2022/08/19 11:39:27;;;;;;;15.27;13.68;;;26.20;99.90;;;;;;5050665;28;20493;-76
2022/08/19 11:41:53;;;;;;;14.55;12.75;;;26.20;99.90;;;;;;5085225;28;20045;-76
2022/08/19 11:44:18;;;;;;;19.42;13.02;;;26.20;99.90;;;;;;5052076;28;20071;-77
2022/08/19 11:46:47;;;;;;;17.88;12.18;;;26.50;99.90;;;;;;5098006;28;20478;-76
2022/08/19 11:49:21;;;;;;;13.73;10.77;;;26.40;99.90;;;;;;5047498;28;20072;-76
2022/08/19 11:51:50;;;;;;;13.63;10.35;;;26.10;99.90;;;;;;5048967;28;20063;-76
2022/08/19 11:54:25;;;;;;;14.60;10.27;;;26.00;99.90;;;;;;5065606;28;20063;-76
2022/08/19 11:56:53;;;;;;;17.33;10.20;;;25.80;99.90;;;;;;5053803;28;20518;-76
2022/08/19 11:59:19;;;;;;;18.40;9.85;;;25.80;99.90;;;;;;5067634;28;20048;-78
2022/08/19 12:01:45;;;;;;;18.58;10.05;;;25.70;99.90;;;;;;5074497;28;20060;-76
2022/08/19 12:04:11;;;;;;;18.88;10.73;;;25.60;99.90;;;;;;5076126;28;20053;-78
2022/08/19 12:06:39;;;;;;;21.40;12.50;;;25.30;99.90;;;;;;5076070;28;20385;-78
2022/08/19 12:09:09;;;;;;;21.33;14.18;;;24.90;99.90;;;;;;5076298;28;20041;-78
2022/08/19 12:11:38;;;;;;;28.80;15.75;;;24.70;99.90;;;;;;5076267;28;20040;-80
2022/08/19 12:14:23;;;;;;;27.17;14.48;;;24.40;99.90;;;;;;5066187;28;20111;-78
2022/08/19 12:16:55;;;;;;;24.23;13.40;;;24.20;99.90;;;;;;5088735;28;20127;-79
2022/08/19 12:19:21;;;;;;;21.10;14.18;;;24.10;99.90;;;;;;5088523;28;20056;-76
2022/08/19 12:21:47;;;;;;;19.83;13.18;;;23.80;99.90;;;;;;5056578;28;20057;-75
2022/08/19 12:24:13;;;;;;;19.15;13.65;;;23.60;99.90;;;;;;5055936;28;20085;-75
2022/08/19 12:26:51;;;;;;;18.65;12.90;;;23.50;99.90;;;;;;5064573;28;20071;-76
2022/08/19 12:29:23;;;;;;;14.63;10.95;;;23.40;99.90;;;;;;5063071;28;20076;-75
2022/08/19 12:32:00;;;;;;;16.67;11.60;;;23.40;99.90;;;;;;5076056;28;20043;-76
2022/08/19 12:34:30;;;;;;;16.52;10.95;;;23.20;99.90;;;;;;5076125;28;20053;-77
2022/08/19 12:37:02;;;;;;;14.98;10.93;;;23.10;99.90;;;;;;5069413;28;20055;-76
2022/08/19 12:39:30;;;;;;;16.30;10.60;;;23.10;99.90;;;;;;5051118;28;20041;-76
2022/08/19 12:41:55;;;;;;;14.75;11.55;;;23.00;99.90;;;;;;5050546;28;20041;-76
2022/08/19 12:44:22;;;;;;;13.32;10.70;;;23.00;99.90;;;;;;5063274;28;20045;-83
2022/08/19 12:46:49;;;;;;;14.85;10.82;;;23.00;99.90;;;;;;5055522;28;20052;-76
2022/08/19 12:49:15;;;;;;;11.50;8.98;;;23.00;99.90;;;;;;5055584;28;20099;-76
2022/08/19 12:51:42;;;;;;;16.52;9.07;;;22.90;99.90;;;;;;5055760;28;20045;-76
2022/08/19 12:54:08;;;;;;;9.40;8.15;;;23.00;99.90;;;;;;5055739;28;20052;-77
2022/08/19 12:56:33;;;;;;;10.15;8.15;;;22.90;99.90;;;;;;5053921;28;20048;-77
2022/08/19 12:59:04;;;;;;;9.07;7.20;;;23.00;99.90;;;;;;5053534;28;20065;-76